sensor_id;sensor_type;location;lat;lon;timestamp;P1;durP1;ratioP1;P2;durP2;ratioP2
11665;SDS011;5889;51.350;6.708;2023-04-26T00:02:22;12.87;;;4.70;;
11665;SDS011;5889;51.350;6.708;2023-04-26T00:04:51;14.43;;;5.80;;
11665;SDS011;5889;51.350;6.708;2023-04-26T00:07:20;11.87;;;4.83;;
11665;SDS011;5889;51.350;6.708;2023-04-26T00:09:47;12.90;;;4.50;;
11665;SDS011;5889;51.350;6.708;2023-04-26T00:12:14;11.77;;;4.20;;
11665;SDS011;5889;51.350;6.708;2023-04-26T00:14:41;11.10;;;4.87;;
11665;SDS011;5889;51.350;6.708;2023-04-26T00:17:08;7.17;;;3.60;;
11665;SDS011;5889;51.350;6.708;2023-04-26T00:19:36;7.73;;;3.27;;
11665;SDS011;5889;51.350;6.708;2023-04-26T00:22:03;11.47;;;4.50;;
11665;SDS011;5889;51.350;6.708;2023-04-26T00:24:30;9.63;;;3.63;;
11665;SDS011;5889;51.350;6.708;2023-04-26T00:26:57;9.13;;;3.80;;
11665;SDS011;5889;51.350;6.708;2023-04-26T00:29:24;7.90;;;3.87;;
11665;SDS011;5889;51.350;6.708;2023-04-26T00:31:51;8.03;;;4.47;;
11665;SDS011;5889;51.350;6.708;2023-04-26T00:34:18;12.33;;;3.93;;
11665;SDS011;5889;51.350;6.708;2023-04-26T00:36:46;14.87;;;4.50;;
11665;SDS011;5889;51.350;6.708;2023-04-26T00:39:13;11.13;;;4.83;;
11665;SDS011;5889;51.350;6.708;2023-04-26T00:41:40;9.27;;;4.20;;
11665;SDS011;5889;51.350;6.708;2023-04-26T00:44:07;10.30;;;4.30;;
11665;SDS011;5889;51.350;6.708;2023-04-26T00:46:34;11.13;;;4.63;;
11665;SDS011;5889;51.350;6.708;2023-04-26T00:49:01;9.57;;;4.30;;
11665;SDS011;5889;51.350;6.708;2023-04-26T00:51:28;10.87;;;4.43;;
11665;SDS011;5889;51.350;6.708;2023-04-26T00:53:57;8.40;;;4.13;;
11665;SDS011;5889;51.350;6.708;2023-04-26T00:56:24;13.70;;;4.50;;
11665;SDS011;5889;51.350;6.708;2023-04-26T00:58:52;9.63;;;4.40;;
11665;SDS011;5889;51.350;6.708;2023-04-26T01:01:19;12.37;;;4.87;;
11665;SDS011;5889;51.350;6.708;2023-04-26T01:03:46;10.27;;;4.50;;
11665;SDS011;5889;51.350;6.708;2023-04-26T01:06:13;12.77;;;4.77;;
11665;SDS011;5889;51.350;6.708;2023-04-26T01:08:40;15.30;;;5.10;;
11665;SDS011;5889;51.350;6.708;2023-04-26T01:11:09;12.00;;;4.40;;
11665;SDS011;5889;51.350;6.708;2023-04-26T01:13:36;7.93;;;4.50;;
11665;SDS011;5889;51.350;6.708;2023-04-26T01:16:03;9.53;;;4.63;;
11665;SDS011;5889;51.350;6.708;2023-04-26T01:18:33;7.53;;;3.80;;
11665;SDS011;5889;51.350;6.708;2023-04-26T01:21:00;12.37;;;5.00;;
11665;SDS011;5889;51.350;6.708;2023-04-26T01:23:30;7.53;;;4.57;;
11665;SDS011;5889;51.350;6.708;2023-04-26T01:25:57;10.43;;;4.80;;
11665;SDS011;5889;51.350;6.708;2023-04-26T01:28:24;10.17;;;4.60;;
11665;SDS011;5889;51.350;6.708;2023-04-26T01:30:51;8.73;;;4.60;;
11665;SDS011;5889;51.350;6.708;2023-04-26T01:33:18;9.27;;;4.60;;
11665;SDS011;5889;51.350;6.708;2023-04-26T01:35:45;9.70;;;5.13;;
11665;SDS011;5889;51.350;6.708;2023-04-26T01:38:11;11.83;;;4.53;;
11665;SDS011;5889;51.350;6.708;2023-04-26T01:40:40;8.10;;;4.30;;
11665;SDS011;5889;51.350;6.708;2023-04-26T01:43:10;9.77;;;4.60;;
11665;SDS011;5889;51.350;6.708;2023-04-26T01:45:37;13.53;;;4.47;;
11665;SDS011;5889;51.350;6.708;2023-04-26T01:48:04;11.67;;;4.70;;
11665;SDS011;5889;51.350;6.708;2023-04-26T01:50:31;14.80;;;5.13;;
11665;SDS011;5889;51.350;6.708;2023-04-26T01:52:58;10.57;;;5.07;;
11665;SDS011;5889;51.350;6.708;2023-04-26T01:55:25;16.83;;;4.77;;
11665;SDS011;5889;51.350;6.708;2023-04-26T01:57:53;13.80;;;4.70;;
11665;SDS011;5889;51.350;6.708;2023-04-26T02:00:20;11.63;;;4.93;;
11665;SDS011;5889;51.350;6.708;2023-04-26T02:02:48;13.07;;;5.20;;
11665;SDS011;5889;51.350;6.708;2023-04-26T02:05:15;10.10;;;5.03;;
11665;SDS011;5889;51.350;6.708;2023-04-26T02:07:42;16.67;;;6.77;;
11665;SDS011;5889;51.350;6.708;2023-04-26T02:10:09;9.87;;;5.20;;
11665;SDS011;5889;51.350;6.708;2023-04-26T02:12:36;12.10;;;6.80;;
11665;SDS011;5889;51.350;6.708;2023-04-26T02:15:04;17.80;;;5.93;;
11665;SDS011;5889;51.350;6.708;2023-04-26T02:17:33;11.03;;;6.37;;
11665;SDS011;5889;51.350;6.708;2023-04-26T02:20:01;11.57;;;6.20;;
11665;SDS011;5889;51.350;6.708;2023-04-26T02:22:28;13.27;;;5.90;;
11665;SDS011;5889;51.350;6.708;2023-04-26T02:24:55;10.93;;;5.43;;
11665;SDS011;5889;51.350;6.708;2023-04-26T02:27:22;14.70;;;6.30;;
11665;SDS011;5889;51.350;6.708;2023-04-26T02:29:49;16.63;;;6.20;;
11665;SDS011;5889;51.350;6.708;2023-04-26T02:32:18;9.97;;;6.10;;
11665;SDS011;5889;51.350;6.708;2023-04-26T02:34:45;13.33;;;6.07;;
11665;SDS011;5889;51.350;6.708;2023-04-26T02:37:12;12.23;;;6.27;;
11665;SDS011;5889;51.350;6.708;2023-04-26T02:39:38;10.47;;;5.67;;
11665;SDS011;5889;51.350;6.708;2023-04-26T02:42:07;10.27;;;5.80;;
11665;SDS011;5889;51.350;6.708;2023-04-26T02:44:35;13.57;;;6.30;;
11665;SDS011;5889;51.350;6.708;2023-04-26T02:47:03;11.67;;;5.63;;
11665;SDS011;5889;51.350;6.708;2023-04-26T02:49:31;12.33;;;6.43;;
11665;SDS011;5889;51.350;6.708;2023-04-26T02:51:58;11.17;;;6.10;;
11665;SDS011;5889;51.350;6.708;2023-04-26T02:54:25;13.77;;;6.93;;
11665;SDS011;5889;51.350;6.708;2023-04-26T02:56:52;19.23;;;7.00;;
11665;SDS011;5889;51.350;6.708;2023-04-26T02:59:20;16.23;;;7.67;;
11665;SDS011;5889;51.350;6.708;2023-04-26T03:01:47;15.67;;;8.23;;
11665;SDS011;5889;51.350;6.708;2023-04-26T03:04:14;15.33;;;7.77;;
11665;SDS011;5889;51.350;6.708;2023-04-26T03:06:43;15.77;;;7.07;;
11665;SDS011;5889;51.350;6.708;2023-04-26T03:09:10;16.47;;;7.63;;
11665;SDS011;5889;51.350;6.708;2023-04-26T03:11:36;16.43;;;7.63;;
11665;SDS011;5889;51.350;6.708;2023-04-26T03:14:03;15.67;;;8.33;;
11665;SDS011;5889;51.350;6.708;2023-04-26T03:16:30;14.20;;;7.50;;
11665;SDS011;5889;51.350;6.708;2023-04-26T03:19:06;17.70;;;8.23;;
11665;SDS011;5889;51.350;6.708;2023-04-26T03:21:35;19.87;;;8.23;;
11665;SDS011;5889;51.350;6.708;2023-04-26T03:24:03;12.47;;;7.43;;
11665;SDS011;5889;51.350;6.708;2023-04-26T03:26:30;16.07;;;8.20;;
11665;SDS011;5889;51.350;6.708;2023-04-26T03:28:57;18.30;;;8.47;;
11665;SDS011;5889;51.350;6.708;2023-04-26T03:31:25;13.27;;;7.63;;
11665;SDS011;5889;51.350;6.708;2023-04-26T03:33:52;13.07;;;7.60;;
11665;SDS011;5889;51.350;6.708;2023-04-26T03:36:18;12.27;;;7.20;;
11665;SDS011;5889;51.350;6.708;2023-04-26T03:38:46;13.20;;;6.40;;
11665;SDS011;5889;51.350;6.708;2023-04-26T03:41:14;11.83;;;6.40;;
11665;SDS011;5889;51.350;6.708;2023-04-26T03:43:41;13.70;;;6.47;;
11665;SDS011;5889;51.350;6.708;2023-04-26T03:46:08;11.17;;;5.83;;
11665;SDS011;5889;51.350;6.708;2023-04-26T03:48:34;11.07;;;6.47;;
11665;SDS011;5889;51.350;6.708;2023-04-26T03:51:01;7.90;;;5.83;;
11665;SDS011;5889;51.350;6.708;2023-04-26T03:53:28;10.37;;;5.67;;
11665;SDS011;5889;51.350;6.708;2023-04-26T03:55:55;16.37;;;6.37;;
11665;SDS011;5889;51.350;6.708;2023-04-26T03:58:24;7.50;;;5.30;;
11665;SDS011;5889;51.350;6.708;2023-04-26T04:00:51;8.63;;;6.03;;
11665;SDS011;5889;51.350;6.708;2023-04-26T04:03:21;13.37;;;5.90;;
11665;SDS011;5889;51.350;6.708;2023-04-26T04:05:48;14.17;;;6.13;;
11665;SDS011;5889;51.350;6.708;2023-04-26T04:08:15;11.27;;;6.43;;
11665;SDS011;5889;51.350;6.708;2023-04-26T04:10:42;12.43;;;6.13;;
11665;SDS011;5889;51.350;6.708;2023-04-26T04:13:09;13.93;;;6.37;;
11665;SDS011;5889;51.350;6.708;2023-04-26T04:15:38;15.10;;;6.27;;
11665;SDS011;5889;51.350;6.708;2023-04-26T04:18:05;12.07;;;6.67;;
11665;SDS011;5889;51.350;6.708;2023-04-26T04:20:32;10.63;;;6.13;;
11665;SDS011;5889;51.350;6.708;2023-04-26T04:22:59;12.40;;;6.50;;
11665;SDS011;5889;51.350;6.708;2023-04-26T04:25:28;16.23;;;6.80;;
11665;SDS011;5889;51.350;6.708;2023-04-26T04:27:58;12.90;;;6.30;;
11665;SDS011;5889;51.350;6.708;2023-04-26T04:30:26;10.67;;;5.23;;
11665;SDS011;5889;51.350;6.708;2023-04-26T04:32:55;9.30;;;4.70;;
11665;SDS011;5889;51.350;6.708;2023-04-26T04:35:24;9.83;;;5.03;;
11665;SDS011;5889;51.350;6.708;2023-04-26T04:37:53;10.67;;;5.20;;
11665;SDS011;5889;51.350;6.708;2023-04-26T04:40:20;9.63;;;5.80;;
11665;SDS011;5889;51.350;6.708;2023-04-26T04:42:48;12.70;;;5.90;;
11665;SDS011;5889;51.350;6.708;2023-04-26T04:45:15;14.10;;;6.07;;
11665;SDS011;5889;51.350;6.708;2023-04-26T04:47:42;10.23;;;5.60;;
11665;SDS011;5889;51.350;6.708;2023-04-26T04:50:11;10.73;;;5.87;;
11665;SDS011;5889;51.350;6.708;2023-04-26T04:52:38;13.07;;;6.43;;
11665;SDS011;5889;51.350;6.708;2023-04-26T04:55:06;9.27;;;5.77;;
11665;SDS011;5889;51.350;6.708;2023-04-26T04:57:34;8.90;;;5.93;;
11665;SDS011;5889;51.350;6.708;2023-04-26T05:00:01;9.27;;;6.20;;
11665;SDS011;5889;51.350;6.708;2023-04-26T05:02:34;10.13;;;6.00;;
11665;SDS011;5889;51.350;6.708;2023-04-26T05:05:01;11.43;;;6.70;;
11665;SDS011;5889;51.350;6.708;2023-04-26T05:07:30;13.43;;;6.50;;
11665;SDS011;5889;51.350;6.708;2023-04-26T05:09:57;12.73;;;6.60;;
11665;SDS011;5889;51.350;6.708;2023-04-26T05:12:24;15.40;;;7.60;;
11665;SDS011;5889;51.350;6.708;2023-04-26T05:14:51;16.77;;;7.93;;
11665;SDS011;5889;51.350;6.708;2023-04-26T05:19:53;12.03;;;6.97;;
11665;SDS011;5889;51.350;6.708;2023-04-26T05:22:20;14.17;;;6.90;;
11665;SDS011;5889;51.350;6.708;2023-04-26T05:24:49;13.33;;;7.97;;
11665;SDS011;5889;51.350;6.708;2023-04-26T05:27:16;14.50;;;7.97;;
11665;SDS011;5889;51.350;6.708;2023-04-26T05:29:43;12.87;;;7.67;;
11665;SDS011;5889;51.350;6.708;2023-04-26T05:32:10;13.27;;;7.70;;
11665;SDS011;5889;51.350;6.708;2023-04-26T05:34:37;17.30;;;8.67;;
11665;SDS011;5889;51.350;6.708;2023-04-26T05:37:04;15.80;;;8.23;;
11665;SDS011;5889;51.350;6.708;2023-04-26T05:39:31;18.30;;;9.43;;
11665;SDS011;5889;51.350;6.708;2023-04-26T05:41:59;406.53;;;33.87;;
11665;SDS011;5889;51.350;6.708;2023-04-26T05:44:26;19.03;;;10.60;;
11665;SDS011;5889;51.350;6.708;2023-04-26T05:46:53;15.93;;;9.77;;
11665;SDS011;5889;51.350;6.708;2023-04-26T05:49:20;16.23;;;9.23;;
11665;SDS011;5889;51.350;6.708;2023-04-26T05:51:47;16.83;;;9.80;;
11665;SDS011;5889;51.350;6.708;2023-04-26T05:54:14;21.70;;;10.47;;
11665;SDS011;5889;51.350;6.708;2023-04-26T05:56:41;19.50;;;9.70;;
11665;SDS011;5889;51.350;6.708;2023-04-26T05:59:09;22.03;;;10.90;;
11665;SDS011;5889;51.350;6.708;2023-04-26T06:01:37;28.90;;;11.77;;
11665;SDS011;5889;51.350;6.708;2023-04-26T06:04:04;33.90;;;12.13;;
11665;SDS011;5889;51.350;6.708;2023-04-26T06:06:31;23.73;;;11.37;;
11665;SDS011;5889;51.350;6.708;2023-04-26T06:08:58;26.40;;;12.07;;
11665;SDS011;5889;51.350;6.708;2023-04-26T06:11:25;28.43;;;12.90;;
11665;SDS011;5889;51.350;6.708;2023-04-26T06:13:52;35.97;;;13.97;;
11665;SDS011;5889;51.350;6.708;2023-04-26T06:16:21;31.90;;;11.70;;
11665;SDS011;5889;51.350;6.708;2023-04-26T06:18:48;29.80;;;13.70;;
11665;SDS011;5889;51.350;6.708;2023-04-26T06:21:16;30.53;;;12.50;;
11665;SDS011;5889;51.350;6.708;2023-04-26T06:23:48;31.73;;;13.57;;
11665;SDS011;5889;51.350;6.708;2023-04-26T06:26:28;28.77;;;13.27;;
11665;SDS011;5889;51.350;6.708;2023-04-26T06:29:02;27.33;;;12.83;;
11665;SDS011;5889;51.350;6.708;2023-04-26T06:40:24;23.87;;;11.97;;
11665;SDS011;5889;51.350;6.708;2023-04-26T06:42:53;28.63;;;13.03;;
11665;SDS011;5889;51.350;6.708;2023-04-26T06:45:21;29.77;;;12.77;;
11665;SDS011;5889;51.350;6.708;2023-04-26T06:47:49;24.50;;;12.90;;
11665;SDS011;5889;51.350;6.708;2023-04-26T06:50:17;29.77;;;12.57;;
11665;SDS011;5889;51.350;6.708;2023-04-26T06:52:44;32.50;;;12.50;;
11665;SDS011;5889;51.350;6.708;2023-04-26T06:55:11;25.60;;;10.80;;
11665;SDS011;5889;51.350;6.708;2023-04-26T06:57:39;26.17;;;12.10;;
11665;SDS011;5889;51.350;6.708;2023-04-26T07:00:07;24.90;;;11.53;;
11665;SDS011;5889;51.350;6.708;2023-04-26T07:02:34;23.73;;;12.90;;
11665;SDS011;5889;51.350;6.708;2023-04-26T07:05:02;23.03;;;11.37;;
11665;SDS011;5889;51.350;6.708;2023-04-26T07:07:30;22.37;;;11.90;;
11665;SDS011;5889;51.350;6.708;2023-04-26T07:09:57;22.97;;;11.77;;
11665;SDS011;5889;51.350;6.708;2023-04-26T07:12:24;28.77;;;11.77;;
11665;SDS011;5889;51.350;6.708;2023-04-26T07:14:52;25.17;;;12.83;;
11665;SDS011;5889;51.350;6.708;2023-04-26T07:17:19;26.23;;;12.60;;
11665;SDS011;5889;51.350;6.708;2023-04-26T07:19:46;22.17;;;11.00;;
11665;SDS011;5889;51.350;6.708;2023-04-26T07:22:13;20.03;;;10.90;;
11665;SDS011;5889;51.350;6.708;2023-04-26T07:24:40;20.03;;;10.57;;
11665;SDS011;5889;51.350;6.708;2023-04-26T07:27:07;20.70;;;10.07;;
11665;SDS011;5889;51.350;6.708;2023-04-26T07:29:34;16.47;;;8.63;;
11665;SDS011;5889;51.350;6.708;2023-04-26T07:32:02;20.73;;;8.77;;
11665;SDS011;5889;51.350;6.708;2023-04-26T07:34:29;17.70;;;9.43;;
11665;SDS011;5889;51.350;6.708;2023-04-26T07:36:56;16.73;;;4.70;;
11665;SDS011;5889;51.350;6.708;2023-04-26T07:39:23;15.13;;;5.10;;
11665;SDS011;5889;51.350;6.708;2023-04-26T07:41:50;12.43;;;5.03;;
11665;SDS011;5889;51.350;6.708;2023-04-26T07:44:17;17.00;;;5.13;;
11665;SDS011;5889;51.350;6.708;2023-04-26T07:46:44;13.73;;;5.23;;
11665;SDS011;5889;51.350;6.708;2023-04-26T07:49:12;14.33;;;5.87;;
11665;SDS011;5889;51.350;6.708;2023-04-26T07:51:42;11.40;;;5.00;;
11665;SDS011;5889;51.350;6.708;2023-04-26T07:54:09;15.33;;;5.57;;
11665;SDS011;5889;51.350;6.708;2023-04-26T07:56:36;11.70;;;4.57;;
11665;SDS011;5889;51.350;6.708;2023-04-26T07:59:03;7.37;;;4.13;;
11665;SDS011;5889;51.350;6.708;2023-04-26T08:01:30;11.03;;;4.50;;
11665;SDS011;5889;51.350;6.708;2023-04-26T08:03:57;12.73;;;5.30;;
11665;SDS011;5889;51.350;6.708;2023-04-26T08:06:26;12.37;;;5.00;;
11665;SDS011;5889;51.350;6.708;2023-04-26T08:08:53;10.37;;;4.47;;
11665;SDS011;5889;51.350;6.708;2023-04-26T08:11:20;7.57;;;4.70;;
11665;SDS011;5889;51.350;6.708;2023-04-26T08:13:47;10.00;;;4.10;;
11665;SDS011;5889;51.350;6.708;2023-04-26T08:16:14;18.17;;;8.43;;
11665;SDS011;5889;51.350;6.708;2023-04-26T08:18:41;19.37;;;9.53;;
11665;SDS011;5889;51.350;6.708;2023-04-26T08:21:07;18.63;;;8.20;;
11665;SDS011;5889;51.350;6.708;2023-04-26T08:23:36;16.60;;;8.53;;
11665;SDS011;5889;51.350;6.708;2023-04-26T08:26:03;24.13;;;7.53;;
11665;SDS011;5889;51.350;6.708;2023-04-26T08:28:30;14.37;;;7.70;;
11665;SDS011;5889;51.350;6.708;2023-04-26T08:30:59;15.23;;;6.83;;
11665;SDS011;5889;51.350;6.708;2023-04-26T08:33:26;13.60;;;6.67;;
11665;SDS011;5889;51.350;6.708;2023-04-26T08:35:53;11.07;;;5.00;;
11665;SDS011;5889;51.350;6.708;2023-04-26T08:38:20;11.27;;;5.60;;
11665;SDS011;5889;51.350;6.708;2023-04-26T08:40:50;18.20;;;6.40;;
11665;SDS011;5889;51.350;6.708;2023-04-26T08:43:17;17.80;;;6.20;;
11665;SDS011;5889;51.350;6.708;2023-04-26T08:45:44;12.53;;;5.97;;
11665;SDS011;5889;51.350;6.708;2023-04-26T08:48:13;12.83;;;5.87;;
11665;SDS011;5889;51.350;6.708;2023-04-26T08:50:42;10.07;;;5.00;;
11665;SDS011;5889;51.350;6.708;2023-04-26T08:53:12;13.67;;;5.20;;
11665;SDS011;5889;51.350;6.708;2023-04-26T08:55:41;10.27;;;5.00;;
11665;SDS011;5889;51.350;6.708;2023-04-26T08:58:18;18.33;;;6.73;;
11665;SDS011;5889;51.350;6.708;2023-04-26T09:00:46;12.63;;;5.87;;
11665;SDS011;5889;51.350;6.708;2023-04-26T09:03:13;10.97;;;5.40;;
11665;SDS011;5889;51.350;6.708;2023-04-26T09:05:43;10.77;;;5.67;;
11665;SDS011;5889;51.350;6.708;2023-04-26T09:08:14;10.63;;;5.53;;
11665;SDS011;5889;51.350;6.708;2023-04-26T09:10:48;13.67;;;5.87;;
11665;SDS011;5889;51.350;6.708;2023-04-26T09:13:15;8.37;;;5.13;;
11665;SDS011;5889;51.350;6.708;2023-04-26T09:15:46;13.37;;;5.00;;
11665;SDS011;5889;51.350;6.708;2023-04-26T09:18:15;9.57;;;4.43;;
11665;SDS011;5889;51.350;6.708;2023-04-26T09:20:43;12.40;;;5.10;;
11665;SDS011;5889;51.350;6.708;2023-04-26T09:23:26;10.73;;;5.27;;
11665;SDS011;5889;51.350;6.708;2023-04-26T09:25:54;9.10;;;4.50;;
11665;SDS011;5889;51.350;6.708;2023-04-26T09:28:22;11.33;;;3.97;;
11665;SDS011;5889;51.350;6.708;2023-04-26T09:30:53;9.50;;;3.93;;
11665;SDS011;5889;51.350;6.708;2023-04-26T09:33:19;8.30;;;4.03;;
11665;SDS011;5889;51.350;6.708;2023-04-26T09:35:46;10.43;;;4.63;;
11665;SDS011;5889;51.350;6.708;2023-04-26T09:38:14;7.97;;;3.90;;
11665;SDS011;5889;51.350;6.708;2023-04-26T09:40:43;9.50;;;4.10;;
11665;SDS011;5889;51.350;6.708;2023-04-26T09:43:11;9.77;;;4.07;;
11665;SDS011;5889;51.350;6.708;2023-04-26T09:45:43;9.00;;;4.20;;
11665;SDS011;5889;51.350;6.708;2023-04-26T09:48:16;10.77;;;4.37;;
11665;SDS011;5889;51.350;6.708;2023-04-26T09:50:46;13.83;;;4.40;;
11665;SDS011;5889;51.350;6.708;2023-04-26T09:53:26;8.70;;;3.93;;
11665;SDS011;5889;51.350;6.708;2023-04-26T09:55:55;9.27;;;3.70;;
11665;SDS011;5889;51.350;6.708;2023-04-26T09:58:22;10.43;;;3.80;;
11665;SDS011;5889;51.350;6.708;2023-04-26T10:00:50;6.80;;;3.50;;
11665;SDS011;5889;51.350;6.708;2023-04-26T10:03:19;4.17;;;2.70;;
11665;SDS011;5889;51.350;6.708;2023-04-26T10:05:46;5.23;;;2.83;;
11665;SDS011;5889;51.350;6.708;2023-04-26T10:08:20;7.07;;;2.63;;
11665;SDS011;5889;51.350;6.708;2023-04-26T10:10:50;6.27;;;2.37;;
11665;SDS011;5889;51.350;6.708;2023-04-26T10:13:26;8.23;;;3.10;;
11665;SDS011;5889;51.350;6.708;2023-04-26T10:15:59;7.60;;;3.40;;
11665;SDS011;5889;51.350;6.708;2023-04-26T10:18:34;8.73;;;3.03;;
11665;SDS011;5889;51.350;6.708;2023-04-26T10:21:09;11.50;;;3.93;;
11665;SDS011;5889;51.350;6.708;2023-04-26T10:26:46;9.07;;;3.63;;
11665;SDS011;5889;51.350;6.708;2023-04-26T10:29:19;6.53;;;2.93;;
11665;SDS011;5889;51.350;6.708;2023-04-26T10:32:06;6.60;;;3.00;;
11665;SDS011;5889;51.350;6.708;2023-04-26T10:34:45;6.50;;;2.73;;
11665;SDS011;5889;51.350;6.708;2023-04-26T10:56:54;6.70;;;3.13;;
11665;SDS011;5889;51.350;6.708;2023-04-26T11:08:27;6.60;;;2.90;;
11665;SDS011;5889;51.350;6.708;2023-04-26T11:24:01;7.67;;;2.90;;
11665;SDS011;5889;51.350;6.708;2023-04-26T11:26:32;6.57;;;2.93;;
11665;SDS011;5889;51.350;6.708;2023-04-26T11:29:00;4.57;;;2.77;;
11665;SDS011;5889;51.350;6.708;2023-04-26T11:31:29;13.60;;;2.90;;
11665;SDS011;5889;51.350;6.708;2023-04-26T11:33:59;6.33;;;3.17;;
11665;SDS011;5889;51.350;6.708;2023-04-26T11:36:29;7.50;;;3.00;;
11665;SDS011;5889;51.350;6.708;2023-04-26T11:38:57;6.53;;;2.63;;
11665;SDS011;5889;51.350;6.708;2023-04-26T11:41:25;8.33;;;2.73;;
11665;SDS011;5889;51.350;6.708;2023-04-26T11:43:52;5.93;;;2.77;;
11665;SDS011;5889;51.350;6.708;2023-04-26T11:46:19;7.73;;;2.73;;
11665;SDS011;5889;51.350;6.708;2023-04-26T11:48:49;9.23;;;6.00;;
11665;SDS011;5889;51.350;6.708;2023-04-26T11:51:18;6.37;;;2.30;;
11665;SDS011;5889;51.350;6.708;2023-04-26T13:45:20;6.10;;;2.93;;
11665;SDS011;5889;51.350;6.708;2023-04-26T13:47:47;8.33;;;3.13;;
11665;SDS011;5889;51.350;6.708;2023-04-26T13:50:13;8.63;;;3.60;;
11665;SDS011;5889;51.350;6.708;2023-04-26T13:52:41;5.00;;;3.00;;
11665;SDS011;5889;51.350;6.708;2023-04-26T14:04:40;7.50;;;3.33;;
11665;SDS011;5889;51.350;6.708;2023-04-26T14:07:45;4.97;;;3.23;;
11665;SDS011;5889;51.350;6.708;2023-04-26T14:10:17;3.87;;;2.77;;
11665;SDS011;5889;51.350;6.708;2023-04-26T14:12:45;5.70;;;4.07;;
11665;SDS011;5889;51.350;6.708;2023-04-26T14:15:14;4.90;;;3.40;;
11665;SDS011;5889;51.350;6.708;2023-04-26T14:17:47;7.83;;;4.03;;
11665;SDS011;5889;51.350;6.708;2023-04-26T14:20:37;13.23;;;4.40;;
11665;SDS011;5889;51.350;6.708;2023-04-26T14:23:05;4.63;;;3.13;;
11665;SDS011;5889;51.350;6.708;2023-04-26T14:25:32;6.27;;;3.30;;
11665;SDS011;5889;51.350;6.708;2023-04-26T14:28:00;5.23;;;3.67;;
11665;SDS011;5889;51.350;6.708;2023-04-26T14:30:29;9.17;;;3.80;;
11665;SDS011;5889;51.350;6.708;2023-04-26T14:32:58;5.73;;;3.80;;
11665;SDS011;5889;51.350;6.708;2023-04-26T14:53:30;8.67;;;3.50;;
11665;SDS011;5889;51.350;6.708;2023-04-26T14:56:00;7.10;;;3.43;;
11665;SDS011;5889;51.350;6.708;2023-04-26T14:58:39;6.67;;;3.20;;
11665;SDS011;5889;51.350;6.708;2023-04-26T15:01:58;4.90;;;3.50;;
11665;SDS011;5889;51.350;6.708;2023-04-26T15:04:56;8.57;;;3.83;;
11665;SDS011;5889;51.350;6.708;2023-04-26T15:07:26;7.20;;;3.73;;
11665;SDS011;5889;51.350;6.708;2023-04-26T15:10:00;5.53;;;3.47;;
11665;SDS011;5889;51.350;6.708;2023-04-26T15:12:29;4.90;;;3.40;;
11665;SDS011;5889;51.350;6.708;2023-04-26T15:14:56;7.03;;;3.53;;
11665;SDS011;5889;51.350;6.708;2023-04-26T15:17:25;9.67;;;4.57;;
11665;SDS011;5889;51.350;6.708;2023-04-26T15:19:55;9.60;;;4.73;;
11665;SDS011;5889;51.350;6.708;2023-04-26T15:22:22;7.33;;;4.27;;
11665;SDS011;5889;51.350;6.708;2023-04-26T15:25:08;8.73;;;3.67;;
11665;SDS011;5889;51.350;6.708;2023-04-26T15:27:58;5.73;;;3.80;;
11665;SDS011;5889;51.350;6.708;2023-04-26T15:31:06;7.27;;;3.90;;
11665;SDS011;5889;51.350;6.708;2023-04-26T15:33:47;5.00;;;3.20;;
11665;SDS011;5889;51.350;6.708;2023-04-26T15:36:18;6.60;;;3.50;;
11665;SDS011;5889;51.350;6.708;2023-04-26T15:39:20;8.50;;;3.97;;
11665;SDS011;5889;51.350;6.708;2023-04-26T15:41:48;9.80;;;4.00;;
11665;SDS011;5889;51.350;6.708;2023-04-26T15:44:15;8.03;;;3.90;;
11665;SDS011;5889;51.350;6.708;2023-04-26T15:46:42;9.00;;;3.70;;
11665;SDS011;5889;51.350;6.708;2023-04-26T15:49:10;5.70;;;3.60;;
11665;SDS011;5889;51.350;6.708;2023-04-26T15:51:37;6.37;;;3.70;;
11665;SDS011;5889;51.350;6.708;2023-04-26T15:54:03;8.47;;;3.50;;
11665;SDS011;5889;51.350;6.708;2023-04-26T15:56:30;8.20;;;3.80;;
11665;SDS011;5889;51.350;6.708;2023-04-26T15:58:59;6.90;;;3.30;;
11665;SDS011;5889;51.350;6.708;2023-04-26T16:01:26;7.27;;;3.90;;
11665;SDS011;5889;51.350;6.708;2023-04-26T16:03:54;5.60;;;3.67;;
11665;SDS011;5889;51.350;6.708;2023-04-26T16:06:21;6.50;;;3.90;;
11665;SDS011;5889;51.350;6.708;2023-04-26T16:08:48;8.23;;;4.20;;
11665;SDS011;5889;51.350;6.708;2023-04-26T16:11:15;11.50;;;5.10;;
11665;SDS011;5889;51.350;6.708;2023-04-26T16:13:42;9.37;;;5.33;;
11665;SDS011;5889;51.350;6.708;2023-04-26T16:16:10;11.73;;;5.17;;
11665;SDS011;5889;51.350;6.708;2023-04-26T16:18:37;10.13;;;4.67;;
11665;SDS011;5889;51.350;6.708;2023-04-26T16:21:05;6.70;;;4.43;;
11665;SDS011;5889;51.350;6.708;2023-04-26T16:23:33;9.83;;;3.97;;
11665;SDS011;5889;51.350;6.708;2023-04-26T16:26:01;9.33;;;4.33;;
11665;SDS011;5889;51.350;6.708;2023-04-26T16:28:28;7.90;;;4.13;;
11665;SDS011;5889;51.350;6.708;2023-04-26T16:30:55;7.93;;;3.80;;
11665;SDS011;5889;51.350;6.708;2023-04-26T16:33:24;6.17;;;4.40;;
11665;SDS011;5889;51.350;6.708;2023-04-26T16:35:51;7.47;;;4.80;;
11665;SDS011;5889;51.350;6.708;2023-04-26T16:38:19;8.20;;;3.93;;
11665;SDS011;5889;51.350;6.708;2023-04-26T16:40:51;6.67;;;4.33;;
11665;SDS011;5889;51.350;6.708;2023-04-26T16:43:21;7.70;;;3.87;;
11665;SDS011;5889;51.350;6.708;2023-04-26T16:45:55;7.47;;;3.87;;
11665;SDS011;5889;51.350;6.708;2023-04-26T16:48:24;9.20;;;4.23;;
11665;SDS011;5889;51.350;6.708;2023-04-26T16:50:52;10.30;;;4.77;;
11665;SDS011;5889;51.350;6.708;2023-04-26T16:53:19;9.17;;;4.43;;
11665;SDS011;5889;51.350;6.708;2023-04-26T16:55:47;7.90;;;3.83;;
11665;SDS011;5889;51.350;6.708;2023-04-26T16:58:27;8.23;;;4.23;;
11665;SDS011;5889;51.350;6.708;2023-04-26T17:01:09;8.33;;;4.27;;
11665;SDS011;5889;51.350;6.708;2023-04-26T17:03:37;9.30;;;3.73;;
11665;SDS011;5889;51.350;6.708;2023-04-26T17:06:04;7.00;;;3.90;;
11665;SDS011;5889;51.350;6.708;2023-04-26T17:08:31;8.23;;;4.03;;
11665;SDS011;5889;51.350;6.708;2023-04-26T17:10:58;8.00;;;3.90;;
11665;SDS011;5889;51.350;6.708;2023-04-26T17:13:26;7.37;;;3.80;;
11665;SDS011;5889;51.350;6.708;2023-04-26T17:15:54;5.73;;;3.80;;
11665;SDS011;5889;51.350;6.708;2023-04-26T17:18:21;12.43;;;4.20;;
11665;SDS011;5889;51.350;6.708;2023-04-26T17:20:50;9.13;;;4.53;;
11665;SDS011;5889;51.350;6.708;2023-04-26T17:23:17;8.23;;;4.50;;
11665;SDS011;5889;51.350;6.708;2023-04-26T17:25:44;5.77;;;3.90;;
11665;SDS011;5889;51.350;6.708;2023-04-26T17:28:12;6.30;;;4.20;;
11665;SDS011;5889;51.350;6.708;2023-04-26T17:30:39;6.93;;;4.00;;
11665;SDS011;5889;51.350;6.708;2023-04-26T17:33:06;7.00;;;4.47;;
11665;SDS011;5889;51.350;6.708;2023-04-26T17:35:33;7.00;;;3.80;;
11665;SDS011;5889;51.350;6.708;2023-04-26T17:38:02;7.93;;;3.97;;
11665;SDS011;5889;51.350;6.708;2023-04-26T17:40:29;6.17;;;4.17;;
11665;SDS011;5889;51.350;6.708;2023-04-26T17:42:55;6.93;;;3.77;;
11665;SDS011;5889;51.350;6.708;2023-04-26T17:45:23;6.13;;;3.70;;
11665;SDS011;5889;51.350;6.708;2023-04-26T17:47:50;11.87;;;4.33;;
11665;SDS011;5889;51.350;6.708;2023-04-26T17:50:17;14.17;;;4.80;;
11665;SDS011;5889;51.350;6.708;2023-04-26T17:52:45;8.53;;;5.20;;
11665;SDS011;5889;51.350;6.708;2023-04-26T17:55:13;10.47;;;4.60;;
11665;SDS011;5889;51.350;6.708;2023-04-26T17:57:40;9.60;;;4.77;;
11665;SDS011;5889;51.350;6.708;2023-04-26T18:00:08;6.93;;;4.10;;
11665;SDS011;5889;51.350;6.708;2023-04-26T18:02:35;9.00;;;4.43;;
11665;SDS011;5889;51.350;6.708;2023-04-26T18:05:02;6.13;;;4.00;;
11665;SDS011;5889;51.350;6.708;2023-04-26T18:07:32;8.63;;;4.83;;
11665;SDS011;5889;51.350;6.708;2023-04-26T18:09:59;8.67;;;4.70;;
11665;SDS011;5889;51.350;6.708;2023-04-26T18:12:27;8.17;;;4.43;;
11665;SDS011;5889;51.350;6.708;2023-04-26T18:14:55;7.83;;;4.60;;
11665;SDS011;5889;51.350;6.708;2023-04-26T18:17:22;7.47;;;4.30;;
11665;SDS011;5889;51.350;6.708;2023-04-26T18:19:49;7.97;;;4.70;;